Time;durP1;ratioP1;P1;durP2;ratioP2;P2;SDS_P1;SDS_P2;PMS_P1;PMS_P2;Temp;Humidity;BMP_temperature;BMP_pressure;BME280_temperature;BME280_humidity;BME280_pressure;Samples;Min_cycle;Max_cycle;Signal;HPM_P1;HPM_P2
2021/11/18 00:00:08;;;;;;;9.07;4.75;;;;;;;;;;4979065;28;20180;-79
2021/11/18 00:02:34;;;;;;;9.43;4.88;;;;;;;;;;4977610;28;20196;-79
2021/11/18 00:05:00;;;;;;;9.93;5.07;;;;;;;;;;4981335;28;20211;-79
2021/11/18 00:07:25;;;;;;;6.07;4.75;;;;;;;;;;4981661;28;20188;-79
2021/11/18 00:09:51;;;;;;;12.47;5.10;;;;;;;;;;4979644;28;20291;-79
2021/11/18 00:12:17;;;;;;;7.57;4.30;;;;;;;;;;4999221;28;20467;-79
2021/11/18 00:14:43;;;;;;;13.57;4.32;;;;;;;;;;4981354;28;20267;-79
2021/11/18 00:17:09;;;;;;;7.03;4.28;;;;;;;;;;4992151;28;20187;-78
2021/11/18 00:19:35;;;;;;;8.70;3.90;;;;;;;;;;4998119;28;20439;-78
2021/11/18 00:22:01;;;;;;;6.72;5.03;;;;;;;;;;4977893;28;20200;-79
2021/11/18 00:24:27;;;;;;;8.02;4.18;;;;;;;;;;4995358;28;20179;-79
2021/11/18 00:26:54;;;;;;;7.45;3.65;;;;;;;;;;4992096;28;20274;-79
2021/11/18 00:29:21;;;;;;;9.30;3.95;;;;;;;;;;4992414;28;20192;-79
2021/11/18 00:31:47;;;;;;;10.82;3.88;;;;;;;;;;4996674;28;20188;-79
2021/11/18 00:34:13;;;;;;;9.90;4.80;;;;;;;;;;4980897;28;20224;-78
2021/11/18 00:36:40;;;;;;;7.85;3.38;;;;;;;;;;4978863;28;20266;-79
2021/11/18 00:39:06;;;;;;;7.40;4.03;;;;;;;;;;4992898;28;20184;-79
2021/11/18 00:41:33;;;;;;;8.65;3.80;;;;;;;;;;4991845;28;20248;-78
2021/11/18 00:43:59;;;;;;;9.63;3.85;;;;;;;;;;4979502;28;20211;-79
2021/11/18 00:46:28;;;;;;;5.75;3.90;;;;;;;;;;4993933;28;20188;-79
2021/11/18 00:48:54;;;;;;;13.10;4.18;;;;;;;;;;4979834;28;20184;-78
2021/11/18 00:51:21;;;;;;;6.20;3.45;;;;;;;;;;4994026;28;20226;-78
2021/11/18 00:53:52;;;;;;;4.82;3.45;;;;;;;;;;4995752;28;20731;-79
2021/11/18 00:56:21;;;;;;;7.25;3.60;;;;;;;;;;4976515;28;20755;-79
2021/11/18 00:58:47;;;;;;;6.75;3.50;;;;;;;;;;4981326;28;20271;-79
2021/11/18 01:01:14;;;;;;;8.00;4.30;;;;;;;;;;4992982;28;20187;-78
2021/11/18 01:03:40;;;;;;;7.97;3.78;;;;;;;;;;4980463;28;20175;-79
2021/11/18 01:06:06;;;;;;;6.18;4.10;;;;;;;;;;4977083;28;20184;-79
2021/11/18 01:08:32;;;;;;;9.75;3.92;;;;;;;;;;4991671;28;20634;-78
2021/11/18 01:11:03;;;;;;;7.03;3.53;;;;;;;;;;4981843;28;20274;-78
2021/11/18 01:13:30;;;;;;;5.47;2.90;;;;;;;;;;4980881;28;20188;-79
2021/11/18 01:15:57;;;;;;;10.60;4.53;;;;;;;;;;4981339;28;20255;-79
2021/11/18 01:18:23;;;;;;;8.13;3.55;;;;;;;;;;4982703;28;20172;-79
2021/11/18 01:20:49;;;;;;;10.02;3.83;;;;;;;;;;4991970;28;20211;-79
2021/11/18 01:23:17;;;;;;;5.88;3.80;;;;;;;;;;4977066;28;20191;-78
2021/11/18 01:25:43;;;;;;;7.50;4.20;;;;;;;;;;4981005;28;20285;-79
2021/11/18 01:28:10;;;;;;;5.60;3.90;;;;;;;;;;4981219;28;20188;-79
2021/11/18 01:30:37;;;;;;;11.52;4.32;;;;;;;;;;4979160;28;20175;-79
2021/11/18 01:33:04;;;;;;;12.45;5.07;;;;;;;;;;4981514;28;20199;-78
2021/11/18 01:35:31;;;;;;;7.82;4.97;;;;;;;;;;4991340;28;20247;-79
2021/11/18 01:37:57;;;;;;;8.80;4.53;;;;;;;;;;4978980;28;20187;-78
2021/11/18 01:40:25;;;;;;;5.95;4.75;;;;;;;;;;4993354;28;20187;-78
2021/11/18 01:42:52;;;;;;;7.82;4.97;;;;;;;;;;4976884;28;20577;-78
2021/11/18 01:45:18;;;;;;;7.50;4.68;;;;;;;;;;4977701;28;20184;-79
2021/11/18 01:47:45;;;;;;;9.93;5.40;;;;;;;;;;4990212;28;20218;-79
2021/11/18 01:50:15;;;;;;;10.90;4.78;;;;;;;;;;4993823;28;20192;-79
2021/11/18 01:52:41;;;;;;;6.30;5.10;;;;;;;;;;4995809;28;20190;-79
2021/11/18 01:55:08;;;;;;;6.22;5.18;;;;;;;;;;4980725;28;20212;-79
2021/11/18 01:57:36;;;;;;;5.57;4.78;;;;;;;;;;4995321;28;20211;-79
2021/11/18 02:00:05;;;;;;;5.78;4.75;;;;;;;;;;4990564;28;20188;-79
2021/11/18 02:02:31;;;;;;;8.57;5.65;;;;;;;;;;4991727;28;20222;-79
2021/11/18 02:05:07;;;;;;;7.78;4.97;;;;;;;;;;4995506;28;20213;-79
2021/11/18 02:07:33;;;;;;;6.20;5.20;;;;;;;;;;4980634;28;20187;-79
2021/11/18 02:10:00;;;;;;;6.57;5.43;;;;;;;;;;4975295;28;20184;-79
2021/11/18 02:12:28;;;;;;;7.32;5.32;;;;;;;;;;4982695;28;20238;-79
2021/11/18 02:14:55;;;;;;;7.35;5.00;;;;;;;;;;4977660;28;20262;-79
2021/11/18 02:17:23;;;;;;;6.15;5.55;;;;;;;;;;4975314;28;20208;-78
2021/11/18 02:20:00;;;;;;;6.30;4.90;;;;;;;;;;4986125;28;20186;-79
2021/11/18 02:22:26;;;;;;;7.00;6.00;;;;;;;;;;4996704;28;20246;-79
2021/11/18 02:24:54;;;;;;;7.10;5.53;;;;;;;;;;4975838;28;20183;-79
2021/11/18 02:27:21;;;;;;;8.32;6.25;;;;;;;;;;4993019;28;20637;-79
2021/11/18 02:29:48;;;;;;;7.03;5.28;;;;;;;;;;4994774;28;20263;-79
2021/11/18 02:32:16;;;;;;;6.47;5.05;;;;;;;;;;4995181;28;20192;-78
2021/11/18 02:34:43;;;;;;;9.02;5.53;;;;;;;;;;4998480;28;20238;-79
2021/11/18 02:37:09;;;;;;;6.32;5.28;;;;;;;;;;4996354;28;20203;-79
2021/11/18 02:39:35;;;;;;;6.15;5.55;;;;;;;;;;4981811;28;20435;-79
2021/11/18 02:42:02;;;;;;;7.05;5.53;;;;;;;;;;4999034;28;20191;-78
2021/11/18 02:44:29;;;;;;;5.35;4.82;;;;;;;;;;4982143;28;20190;-79
2021/11/18 02:46:56;;;;;;;6.18;5.43;;;;;;;;;;4996700;28;20183;-79
2021/11/18 02:49:22;;;;;;;5.20;4.70;;;;;;;;;;4996590;28;20188;-79
2021/11/18 02:51:48;;;;;;;7.15;5.05;;;;;;;;;;4981489;28;20263;-79
2021/11/18 02:54:14;;;;;;;5.10;4.70;;;;;;;;;;4997048;28;20206;-79
2021/11/18 02:56:40;;;;;;;7.60;5.37;;;;;;;;;;4998906;28;20207;-80
2021/11/18 02:59:07;;;;;;;7.82;4.82;;;;;;;;;;4995560;28;20436;-78
2021/11/18 03:01:35;;;;;;;5.32;4.65;;;;;;;;;;4984881;28;20242;-79
2021/11/18 03:04:01;;;;;;;5.30;4.70;;;;;;;;;;4978463;28;20184;-78
2021/11/18 03:06:27;;;;;;;5.28;3.85;;;;;;;;;;4981975;28;20541;-79
2021/11/18 03:08:53;;;;;;;8.82;4.25;;;;;;;;;;4978494;28;20239;-79
2021/11/18 03:11:20;;;;;;;7.07;5.60;;;;;;;;;;4992951;28;20258;-79
2021/11/18 03:13:47;;;;;;;7.00;3.85;;;;;;;;;;4998048;28;20199;-79
2021/11/18 03:16:13;;;;;;;6.88;4.50;;;;;;;;;;4979972;28;20196;-79
2021/11/18 03:18:39;;;;;;;6.22;4.38;;;;;;;;;;4981678;28;20176;-79
2021/11/18 03:21:08;;;;;;;6.72;4.70;;;;;;;;;;4993721;28;20278;-79
2021/11/18 03:23:34;;;;;;;7.47;5.32;;;;;;;;;;4997669;28;20180;-79
2021/11/18 03:26:00;;;;;;;6.45;4.28;;;;;;;;;;4995863;28;20187;-79
2021/11/18 03:28:27;;;;;;;5.50;4.45;;;;;;;;;;4995993;28;20680;-79
2021/11/18 03:30:53;;;;;;;9.32;6.22;;;;;;;;;;4979456;28;20184;-79
2021/11/18 03:33:28;;;;;;;4.55;4.15;;;;;;;;;;4980504;28;20179;-79
2021/11/18 03:35:55;;;;;;;9.82;3.95;;;;;;;;;;4992951;28;20206;-79
2021/11/18 03:38:22;;;;;;;6.90;4.75;;;;;;;;;;4981743;28;20183;-79
2021/11/18 03:40:50;;;;;;;4.90;4.40;;;;;;;;;;4998791;28;20180;-79
2021/11/18 03:43:16;;;;;;;7.25;4.38;;;;;;;;;;4994732;28;20188;-79
2021/11/18 03:45:42;;;;;;;5.50;4.20;;;;;;;;;;4979366;28;20247;-79
2021/11/18 03:48:09;;;;;;;5.70;4.20;;;;;;;;;;4979094;28;20180;-79
2021/11/18 03:50:36;;;;;;;9.27;4.50;;;;;;;;;;4994218;28;20212;-79
2021/11/18 03:53:02;;;;;;;4.75;4.03;;;;;;;;;;4995819;28;20192;-79
2021/11/18 03:55:28;;;;;;;6.25;5.05;;;;;;;;;;4980868;28;20231;-79
2021/11/18 03:57:54;;;;;;;6.35;4.13;;;;;;;;;;4978369;28;20543;-79
2021/11/18 04:00:26;;;;;;;7.95;4.03;;;;;;;;;;4979907;28;20172;-79
2021/11/18 04:02:52;;;;;;;6.32;4.32;;;;;;;;;;4983189;28;20188;-79
2021/11/18 04:05:18;;;;;;;6.20;4.07;;;;;;;;;;4977999;28;20188;-79
2021/11/18 04:07:44;;;;;;;6.80;5.05;;;;;;;;;;4997092;28;20347;-79
2021/11/18 04:10:16;;;;;;;7.32;4.00;;;;;;;;;;4978531;28;20184;-79
2021/11/18 04:12:42;;;;;;;7.55;4.13;;;;;;;;;;4979300;28;20246;-78
2021/11/18 04:15:09;;;;;;;4.28;3.88;;;;;;;;;;4978863;28;20210;-79
2021/11/18 04:17:35;;;;;;;7.45;4.78;;;;;;;;;;4991992;28;20608;-79
2021/11/18 04:20:01;;;;;;;5.35;4.20;;;;;;;;;;4994193;28;20192;-79
2021/11/18 04:22:27;;;;;;;4.70;4.20;;;;;;;;;;4982268;28;20180;-79
2021/11/18 04:24:53;;;;;;;4.22;3.70;;;;;;;;;;4978302;28;20188;-79
2021/11/18 04:27:19;;;;;;;5.40;3.60;;;;;;;;;;4979534;28;20195;-79
2021/11/18 04:29:45;;;;;;;7.18;4.47;;;;;;;;;;4977197;28;20195;-79
2021/11/18 04:32:13;;;;;;;7.15;5.53;;;;;;;;;;4977355;28;20200;-79
2021/11/18 04:34:40;;;;;;;9.10;4.78;;;;;;;;;;4996339;28;20215;-79
2021/11/18 04:37:06;;;;;;;13.10;4.82;;;;;;;;;;4992507;28;20184;-79
2021/11/18 04:39:32;;;;;;;10.32;5.15;;;;;;;;;;4980933;28;20184;-79
2021/11/18 04:41:59;;;;;;;8.93;5.03;;;;;;;;;;4976754;28;20198;-79
2021/11/18 04:44:26;;;;;;;6.75;5.15;;;;;;;;;;4982826;28;20188;-79
2021/11/18 04:46:53;;;;;;;6.50;4.50;;;;;;;;;;4995517;28;20191;-79
2021/11/18 04:49:19;;;;;;;6.00;5.38;;;;;;;;;;4992832;28;20188;-79
2021/11/18 04:51:46;;;;;;;6.38;4.70;;;;;;;;;;4979204;28;20176;-79
2021/11/18 04:54:12;;;;;;;7.20;5.18;;;;;;;;;;4979144;28;20511;-79
2021/11/18 04:56:38;;;;;;;6.78;4.45;;;;;;;;;;4991544;28;20227;-79
2021/11/18 04:59:05;;;;;;;5.85;5.07;;;;;;;;;;4996442;28;20180;-79
2021/11/18 05:01:31;;;;;;;10.40;4.80;;;;;;;;;;4982274;28;20555;-79
2021/11/18 05:03:57;;;;;;;7.43;4.50;;;;;;;;;;4997729;28;20183;-79
2021/11/18 05:06:23;;;;;;;7.78;4.40;;;;;;;;;;4979118;28;20187;-79
2021/11/18 05:08:49;;;;;;;6.97;4.60;;;;;;;;;;4980209;28;20223;-79
2021/11/18 05:11:16;;;;;;;8.38;4.85;;;;;;;;;;4992492;28;20301;-79
2021/11/18 05:13:42;;;;;;;6.13;4.43;;;;;;;;;;4996784;28;20184;-79
2021/11/18 05:16:09;;;;;;;4.32;3.90;;;;;;;;;;4977127;28;20204;-79
2021/11/18 05:18:36;;;;;;;5.13;4.35;;;;;;;;;;4983882;28;20175;-79
2021/11/18 05:21:03;;;;;;;6.82;4.93;;;;;;;;;;4976764;28;20775;-79
2021/11/18 05:23:29;;;;;;;8.82;4.78;;;;;;;;;;4976556;28;20184;-79
2021/11/18 05:25:56;;;;;;;5.97;4.45;;;;;;;;;;4994874;28;20184;-79
2021/11/18 05:28:22;;;;;;;9.35;4.32;;;;;;;;;;4993067;28;20192;-79
2021/11/18 05:30:48;;;;;;;7.75;4.68;;;;;;;;;;4976952;28;20179;-79
2021/11/18 05:33:15;;;;;;;4.80;3.42;;;;;;;;;;4991447;28;20330;-79
2021/11/18 05:35:42;;;;;;;6.35;4.97;;;;;;;;;;4991241;28;20222;-79
2021/11/18 05:38:08;;;;;;;5.88;3.97;;;;;;;;;;4994814;28;20181;-79
2021/11/18 05:40:35;;;;;;;7.95;5.07;;;;;;;;;;4994368;28;20186;-79
2021/11/18 05:43:01;;;;;;;10.32;5.15;;;;;;;;;;4976099;28;20192;-79
2021/11/18 05:45:29;;;;;;;7.85;4.45;;;;;;;;;;4993682;28;20176;-78
2021/11/18 05:47:55;;;;;;;4.65;3.78;;;;;;;;;;4990098;28;20197;-79
2021/11/18 05:50:22;;;;;;;7.65;4.57;;;;;;;;;;4990576;28;20207;-79
2021/11/18 05:52:48;;;;;;;5.35;4.85;;;;;;;;;;4979654;28;20668;-79
2021/11/18 05:55:15;;;;;;;7.80;4.60;;;;;;;;;;4977173;28;20568;-79
2021/11/18 05:57:42;;;;;;;5.68;3.60;;;;;;;;;;4978854;28;20642;-79
2021/11/18 06:00:09;;;;;;;6.85;4.05;;;;;;;;;;4996425;28;20633;-79
2021/11/18 06:02:37;;;;;;;9.80;5.30;;;;;;;;;;4990287;28;20601;-79
2021/11/18 06:05:04;;;;;;;6.70;3.83;;;;;;;;;;4995544;28;20668;-79
2021/11/18 06:07:31;;;;;;;7.40;4.78;;;;;;;;;;4979869;28;20752;-79
2021/11/18 06:09:57;;;;;;;6.28;4.47;;;;;;;;;;4977588;28;20183;-79
2021/11/18 06:12:24;;;;;;;5.95;4.82;;;;;;;;;;4977488;28;20242;-79
2021/11/18 06:14:50;;;;;;;15.73;5.57;;;;;;;;;;4978541;28;20200;-79
2021/11/18 06:17:16;;;;;;;10.15;4.30;;;;;;;;;;4992108;28;20537;-79
2021/11/18 06:19:42;;;;;;;9.13;5.25;;;;;;;;;;4979809;28;20451;-80
2021/11/18 06:22:08;;;;;;;9.25;5.00;;;;;;;;;;4991324;28;20859;-79
2021/11/18 06:24:34;;;;;;;6.40;4.78;;;;;;;;;;4999570;28;20184;-80
2021/11/18 06:27:00;;;;;;;6.22;4.20;;;;;;;;;;4975233;28;20263;-79
2021/11/18 06:29:30;;;;;;;4.82;4.32;;;;;;;;;;4990099;28;20686;-79
2021/11/18 06:31:56;;;;;;;4.82;4.07;;;;;;;;;;4978582;28;20215;-79
2021/11/18 06:34:23;;;;;;;4.57;4.18;;;;;;;;;;4992595;28;20669;-79
2021/11/18 06:36:49;;;;;;;6.30;4.60;;;;;;;;;;4981498;28;20276;-79
2021/11/18 06:39:15;;;;;;;8.73;4.80;;;;;;;;;;4977007;28;20187;-79
2021/11/18 06:41:42;;;;;;;8.77;4.55;;;;;;;;;;4994955;28;20180;-79
2021/11/18 06:44:08;;;;;;;8.70;5.57;;;;;;;;;;4993853;28;20239;-79
2021/11/18 06:46:35;;;;;;;8.13;5.15;;;;;;;;;;4994860;28;20429;-79
2021/11/18 06:49:01;;;;;;;7.70;5.05;;;;;;;;;;4977270;28;20189;-79
2021/11/18 06:51:28;;;;;;;5.65;4.30;;;;;;;;;;4994015;28;20251;-79
2021/11/18 06:53:55;;;;;;;6.15;5.47;;;;;;;;;;4994077;28;20183;-79
2021/11/18 06:56:21;;;;;;;9.32;6.20;;;;;;;;;;4989705;28;20567;-79
2021/11/18 06:58:48;;;;;;;11.82;8.25;;;;;;;;;;4995283;28;20179;-80
2021/11/18 07:01:14;;;;;;;7.97;6.40;;;;;;;;;;4991708;28;20196;-79
2021/11/18 07:03:40;;;;;;;11.85;5.38;;;;;;;;;;4977336;28;20251;-79
2021/11/18 07:06:07;;;;;;;7.60;5.53;;;;;;;;;;4990844;28;20180;-79
2021/11/18 07:08:34;;;;;;;8.07;5.15;;;;;;;;;;4990586;28;20583;-79
2021/11/18 07:11:00;;;;;;;9.65;5.38;;;;;;;;;;4979885;28;20223;-79
2021/11/18 07:13:27;;;;;;;5.28;4.30;;;;;;;;;;4980462;28;20280;-79
2021/11/18 07:15:53;;;;;;;6.70;4.75;;;;;;;;;;4982143;28;20208;-79
2021/11/18 07:18:20;;;;;;;6.20;4.70;;;;;;;;;;4985795;28;20207;-79
2021/11/18 07:20:46;;;;;;;8.57;5.38;;;;;;;;;;4993364;28;20212;-79
2021/11/18 07:23:12;;;;;;;7.97;5.10;;;;;;;;;;4980005;28;20661;-79
2021/11/18 07:25:39;;;;;;;5.45;4.75;;;;;;;;;;4982896;28;20184;-79
2021/11/18 07:28:06;;;;;;;7.75;5.25;;;;;;;;;;4977392;28;20259;-78
2021/11/18 07:30:32;;;;;;;11.13;5.57;;;;;;;;;;4984791;28;20182;-79
2021/11/18 07:32:59;;;;;;;9.27;5.75;;;;;;;;;;4978590;28;20175;-78
2021/11/18 07:35:25;;;;;;;9.32;5.43;;;;;;;;;;4993290;28;20203;-79
2021/11/18 07:37:51;;;;;;;8.45;5.30;;;;;;;;;;4986468;28;20573;-79
2021/11/18 07:40:18;;;;;;;5.95;4.65;;;;;;;;;;4998118;28;20204;-78
2021/11/18 07:42:45;;;;;;;6.50;5.40;;;;;;;;;;5011638;28;20176;-79
2021/11/18 07:45:11;;;;;;;8.40;5.65;;;;;;;;;;4997404;28;20190;-79
2021/11/18 07:47:37;;;;;;;6.63;4.60;;;;;;;;;;4995026;28;20203;-79
2021/11/18 07:50:06;;;;;;;5.82;4.82;;;;;;;;;;4999642;28;20195;-79
2021/11/18 07:52:32;;;;;;;6.85;4.88;;;;;;;;;;4985022;28;20251;-79
2021/11/18 07:54:58;;;;;;;7.57;5.32;;;;;;;;;;4999430;28;20218;-79
2021/11/18 07:57:24;;;;;;;7.80;5.20;;;;;;;;;;4995011;28;20208;-78
2021/11/18 07:59:50;;;;;;;8.90;4.75;;;;;;;;;;4977610;28;20267;-79
2021/11/18 08:02:16;;;;;;;11.00;5.05;;;;;;;;;;4980902;28;20191;-78
2021/11/18 08:04:42;;;;;;;10.60;6.03;;;;;;;;;;4979650;28;20202;-78
2021/11/18 08:07:09;;;;;;;11.65;6.00;;;;;;;;;;4992382;28;20450;-78
2021/11/18 08:09:35;;;;;;;7.00;4.78;;;;;;;;;;4996038;28;20676;-79
2021/11/18 08:12:04;;;;;;;9.45;4.50;;;;;;;;;;4991343;28;20239;-78
2021/11/18 08:14:30;;;;;;;7.45;5.18;;;;;;;;;;4994025;28;20220;-78
2021/11/18 08:16:56;;;;;;;9.77;6.53;;;;;;;;;;4982484;28;20184;-78
2021/11/18 08:19:23;;;;;;;10.05;5.30;;;;;;;;;;4981078;28;20181;-79
2021/11/18 08:21:50;;;;;;;11.23;5.80;;;;;;;;;;4978384;28;20175;-78
2021/11/18 08:24:16;;;;;;;12.73;6.05;;;;;;;;;;4996825;28;20199;-79
2021/11/18 08:26:43;;;;;;;11.23;6.45;;;;;;;;;;4992194;28;20204;-80
2021/11/18 08:29:10;;;;;;;12.18;6.45;;;;;;;;;;4979751;28;20196;-80
2021/11/18 08:31:39;;;;;;;10.93;5.47;;;;;;;;;;4999705;28;20198;-80
2021/11/18 08:34:05;;;;;;;10.57;5.72;;;;;;;;;;4978274;28;20185;-81
2021/11/18 08:36:33;;;;;;;11.00;5.95;;;;;;;;;;4995363;28;20681;-81
2021/11/18 08:38:59;;;;;;;13.68;5.85;;;;;;;;;;4992509;28;20177;-80
2021/11/18 08:41:25;;;;;;;15.25;6.93;;;;;;;;;;4996077;28;20184;-80
2021/11/18 08:43:53;;;;;;;13.18;6.78;;;;;;;;;;4995755;28;20202;-80
2021/11/18 08:46:21;;;;;;;10.88;6.25;;;;;;;;;;4993618;28;20208;-80
2021/11/18 08:48:47;;;;;;;9.57;6.15;;;;;;;;;;4979133;28;20738;-80
2021/11/18 08:51:14;;;;;;;9.57;6.35;;;;;;;;;;4998422;28;20179;-81
2021/11/18 08:53:42;;;;;;;12.70;6.10;;;;;;;;;;4999829;28;20620;-80
2021/11/18 08:56:08;;;;;;;8.63;5.57;;;;;;;;;;4993230;28;20685;-80
2021/11/18 08:58:36;;;;;;;8.88;6.15;;;;;;;;;;4982168;28;20191;-80
2021/11/18 09:01:07;;;;;;;11.02;6.75;;;;;;;;;;4978378;28;20555;-79
2021/11/18 09:03:34;;;;;;;14.48;6.97;;;;;;;;;;4995338;28;20180;-81
2021/11/18 09:06:01;;;;;;;13.65;7.38;;;;;;;;;;4976057;28;20215;-80
2021/11/18 09:08:27;;;;;;;13.60;6.78;;;;;;;;;;4992709;28;20180;-76
2021/11/18 09:10:53;;;;;;;7.95;6.80;;;;;;;;;;4979746;28;20226;-77
2021/11/18 09:13:19;;;;;;;11.50;7.15;;;;;;;;;;4992288;28;20769;-78
2021/11/18 09:15:48;;;;;;;15.45;9.23;;;;;;;;;;4979364;28;20208;-78
2021/11/18 09:18:15;;;;;;;10.25;8.07;;;;;;;;;;4994123;28;20183;-78
2021/11/18 09:20:42;;;;;;;11.85;8.10;;;;;;;;;;4976254;28;20192;-78
2021/11/18 09:23:08;;;;;;;13.63;8.65;;;;;;;;;;4978461;28;20248;-79
2021/11/18 09:25:36;;;;;;;12.57;8.48;;;;;;;;;;4994812;28;20188;-78
2021/11/18 09:28:04;;;;;;;12.63;7.50;;;;;;;;;;4977240;28;20761;-78
2021/11/18 09:30:33;;;;;;;13.93;9.00;;;;;;;;;;4994551;28;20176;-78
2021/11/18 09:32:59;;;;;;;13.52;9.15;;;;;;;;;;4979864;28;20197;-78
2021/11/18 09:35:27;;;;;;;16.70;9.07;;;;;;;;;;4976472;28;20204;-78
2021/11/18 09:37:53;;;;;;;13.48;8.57;;;;;;;;;;4994601;28;20719;-78
2021/11/18 09:40:22;;;;;;;12.60;8.30;;;;;;;;;;4977443;28;20185;-78
2021/11/18 09:43:17;;;;;;;10.25;8.27;;;;;;;;;;4978606;28;20625;-78
2021/11/18 09:45:46;;;;;;;12.65;8.23;;;;;;;;;;4995603;28;20191;-79
2021/11/18 09:48:31;;;;;;;16.40;9.35;;;;;;;;;;4993958;28;20184;-78
2021/11/18 09:51:12;;;;;;;16.05;7.90;;;;;;;;;;4976125;28;20202;-79
2021/11/18 09:53:57;;;;;;;15.60;8.85;;;;;;;;;;4991035;28;20203;-78
2021/11/18 09:56:31;;;;;;;11.32;7.63;;;;;;;;;;4990502;28;20231;-78
2021/11/18 09:59:13;;;;;;;11.27;8.07;;;;;;;;;;4979319;28;20180;-78
2021/11/18 10:01:42;;;;;;;9.73;7.38;;;;;;;;;;4980430;28;20207;-79
2021/11/18 10:04:14;;;;;;;11.07;8.15;;;;;;;;;;4977899;28;20184;-78
2021/11/18 10:06:41;;;;;;;12.45;8.55;;;;;;;;;;4995751;28;20676;-78
2021/11/18 10:09:16;;;;;;;11.32;8.73;;;;;;;;;;4992647;28;20275;-78
2021/11/18 10:11:48;;;;;;;13.95;9.52;;;;;;;;;;4975375;28;20235;-78
2021/11/18 10:14:17;;;;;;;12.13;8.60;;;;;;;;;;4991970;28;20212;-78
2021/11/18 10:16:48;;;;;;;17.77;9.32;;;;;;;;;;4994598;28;20234;-78
2021/11/18 10:19:19;;;;;;;10.57;8.23;;;;;;;;;;4976312;28;20184;-78
2021/11/18 10:21:45;;;;;;;11.98;9.05;;;;;;;;;;4976925;28;20194;-79
2021/11/18 10:24:16;;;;;;;15.75;8.73;;;;;;;;;;4992061;28;20660;-79
2021/11/18 10:26:48;;;;;;;10.32;7.93;;;;;;;;;;4990467;28;20204;-79
2021/11/18 10:29:17;;;;;;;16.40;10.10;;;;;;;;;;4976584;28;20194;-79
2021/11/18 10:32:09;;;;;;;11.75;8.65;;;;;;;;;;4980603;28;20188;-78
2021/11/18 10:34:41;;;;;;;14.40;9.73;;;;;;;;;;4975796;28;20258;-79
2021/11/18 10:37:07;;;;;;;11.65;8.85;;;;;;;;;;4995622;28;20280;-79
2021/11/18 10:39:39;;;;;;;20.00;8.10;;;;;;;;;;4994202;28;20175;-78
2021/11/18 10:42:09;;;;;;;12.80;7.28;;;;;;;;;;4979339;28;20431;-78
2021/11/18 10:44:50;;;;;;;18.15;7.15;;;;;;;;;;4975669;28;20180;-79
2021/11/18 10:47:20;;;;;;;11.52;6.50;;;;;;;;;;4992651;28;20281;-78
2021/11/18 10:50:04;;;;;;;10.27;8.25;;;;;;;;;;4983383;28;20212;-78
2021/11/18 10:52:30;;;;;;;9.95;6.15;;;;;;;;;;4996382;28;20183;-79
2021/11/18 10:55:01;;;;;;;11.13;5.55;;;;;;;;;;4981218;28;20574;-79
2021/11/18 10:57:29;;;;;;;9.65;5.00;;;;;;;;;;4996397;28;20219;-79
2021/11/18 11:00:09;;;;;;;10.00;4.60;;;;;;;;;;4993729;28;20187;-79
2021/11/18 11:02:36;;;;;;;11.18;3.80;;;;;;;;;;4978479;28;20184;-78
2021/11/18 11:05:21;;;;;;;12.27;4.00;;;;;;;;;;4996553;28;20212;-78
2021/11/18 11:07:48;;;;;;;9.18;4.40;;;;;;;;;;5014378;28;20191;-78
2021/11/18 11:10:15;;;;;;;13.18;4.10;;;;;;;;;;4979825;28;20191;-78
2021/11/18 11:12:59;;;;;;;7.80;3.75;;;;;;;;;;4982122;28;20184;-78
2021/11/18 11:15:38;;;;;;;9.18;3.85;;;;;;;;;;4996981;28;20219;-78
2021/11/18 11:18:04;;;;;;;7.93;3.45;;;;;;;;;;4994385;28;20183;-78
2021/11/18 11:20:39;;;;;;;13.43;4.00;;;;;;;;;;4978001;28;20271;-77
2021/11/18 11:23:23;;;;;;;8.10;3.05;;;;;;;;;;4997041;28;20175;-78
2021/11/18 11:26:08;;;;;;;13.48;4.13;;;;;;;;;;4986340;28;20544;-78
2021/11/18 11:28:34;;;;;;;14.13;3.70;;;;;;;;;;4998831;28;20204;-78
2021/11/18 11:31:00;;;;;;;8.70;3.95;;;;;;;;;;4978498;28;20208;-78
2021/11/18 11:33:45;;;;;;;8.57;3.33;;;;;;;;;;4997260;28;20175;-78
2021/11/18 11:36:26;;;;;;;7.50;4.13;;;;;;;;;;4978363;28;20467;-78
2021/11/18 11:39:07;;;;;;;10.98;5.30;;;;;;;;;;4978647;28;20191;-78
2021/11/18 11:41:40;;;;;;;9.13;4.55;;;;;;;;;;4992582;28;20247;-79
2021/11/18 11:44:30;;;;;;;6.47;3.35;;;;;;;;;;4995317;28;20185;-79
2021/11/18 11:46:56;;;;;;;6.75;3.83;;;;;;;;;;5003338;28;20191;-79
2021/11/18 11:49:40;;;;;;;6.18;4.00;;;;;;;;;;4980326;28;20192;-79
2021/11/18 11:52:25;;;;;;;10.30;4.07;;;;;;;;;;4977102;28;20243;-79
2021/11/18 11:55:10;;;;;;;8.00;4.70;;;;;;;;;;4978216;28;20207;-79
2021/11/18 11:57:36;;;;;;;16.35;6.40;;;;;;;;;;4986188;28;20188;-79
2021/11/18 12:00:25;;;;;;;13.00;6.38;;;;;;;;;;4997015;28;20187;-78
2021/11/18 12:03:12;;;;;;;14.52;5.40;;;;;;;;;;4972777;28;20195;-78
2021/11/18 12:05:57;;;;;;;9.77;4.75;;;;;;;;;;4983384;28;20191;-79
2021/11/18 12:08:30;;;;;;;12.27;4.47;;;;;;;;;;4987992;28;20203;-78
2021/11/18 12:11:03;;;;;;;4.43;3.35;;;;;;;;;;4965802;28;20307;-79
2021/11/18 12:13:44;;;;;;;7.38;4.00;;;;;;;;;;4985753;28;20200;-79
2021/11/18 12:16:22;;;;;;;16.48;4.30;;;;;;;;;;4975375;28;20243;-78
2021/11/18 12:18:51;;;;;;;9.38;3.25;;;;;;;;;;4982151;28;20179;-78
2021/11/18 12:21:18;;;;;;;7.43;4.07;;;;;;;;;;4982366;28;20184;-79
2021/11/18 12:23:59;;;;;;;5.80;2.40;;;;;;;;;;4963582;28;20199;-78
2021/11/18 12:26:25;;;;;;;10.38;3.28;;;;;;;;;;4979509;28;20243;-79
2021/11/18 12:29:11;;;;;;;10.52;3.63;;;;;;;;;;4980081;28;20196;-78
2021/11/18 12:31:43;;;;;;;8.25;2.85;;;;;;;;;;4974999;28;20242;-78
2021/11/18 12:34:12;;;;;;;12.10;3.17;;;;;;;;;;4974249;28;20192;-79
2021/11/18 12:36:57;;;;;;;6.05;2.88;;;;;;;;;;4983309;28;20729;-79
2021/11/18 12:39:34;;;;;;;8.40;3.33;;;;;;;;;;4985683;28;20182;-78
2021/11/18 12:42:09;;;;;;;12.88;2.90;;;;;;;;;;4979404;28;20342;-79
2021/11/18 12:44:47;;;;;;;16.48;3.38;;;;;;;;;;4996045;28;20246;-78
2021/11/18 12:47:18;;;;;;;6.72;3.75;;;;;;;;;;4996099;28;20291;-79
2021/11/18 12:49:50;;;;;;;7.65;3.13;;;;;;;;;;4997024;28;20212;-79
2021/11/18 12:52:51;;;;;;;6.13;2.30;;;;;;;;;;4981743;28;20183;-79
2021/11/18 12:55:20;;;;;;;14.82;3.40;;;;;;;;;;4965697;28;20206;-79
2021/11/18 12:57:48;;;;;;;9.73;4.03;;;;;;;;;;4966208;28;20198;-79
2021/11/18 13:00:16;;;;;;;9.00;3.20;;;;;;;;;;4966296;28;20594;-80
2021/11/18 13:02:44;;;;;;;8.52;3.65;;;;;;;;;;4958954;28;20251;-80
2021/11/18 13:05:10;;;;;;;6.63;2.60;;;;;;;;;;4952677;28;20195;-80
2021/11/18 13:07:36;;;;;;;9.90;3.77;;;;;;;;;;4962997;28;20274;-79
2021/11/18 13:10:08;;;;;;;10.27;3.37;;;;;;;;;;4965656;28;20439;-80
2021/11/18 13:12:35;;;;;;;13.68;3.40;;;;;;;;;;4981427;28;20486;-80
2021/11/18 13:15:06;;;;;;;12.98;3.13;;;;;;;;;;4962647;28;20219;-80
2021/11/18 13:17:36;;;;;;;11.02;5.50;;;;;;;;;;4961035;28;20697;-79
2021/11/18 13:20:15;;;;;;;16.92;4.90;;;;;;;;;;4981595;28;20195;-80
2021/11/18 13:22:45;;;;;;;9.27;4.63;;;;;;;;;;4981362;28;20192;-80
2021/11/18 13:25:29;;;;;;;14.95;5.65;;;;;;;;;;4976103;28;20199;-80
2021/11/18 13:28:18;;;;;;;7.47;3.70;;;;;;;;;;4981239;28;20201;-80
2021/11/18 13:30:58;;;;;;;13.75;4.38;;;;;;;;;;4982670;28;20176;-79
2021/11/18 13:33:34;;;;;;;11.27;4.18;;;;;;;;;;4998944;28;20207;-81
2021/11/18 13:36:11;;;;;;;8.48;3.08;;;;;;;;;;4997260;28;20211;-79
2021/11/18 13:38:56;;;;;;;7.20;3.13;;;;;;;;;;4996053;28;20211;-79
2021/11/18 13:41:37;;;;;;;10.93;2.97;;;;;;;;;;4995828;28;20180;-80
2021/11/18 13:44:04;;;;;;;11.18;3.63;;;;;;;;;;4973013;28;20188;-80
2021/11/18 13:46:33;;;;;;;9.25;3.05;;;;;;;;;;4980026;28;20272;-80
2021/11/18 13:49:11;;;;;;;7.32;2.40;;;;;;;;;;4998104;28;20203;-80
2021/11/18 13:51:44;;;;;;;9.35;3.63;;;;;;;;;;4981345;28;20249;-80
2021/11/18 13:54:20;;;;;;;10.77;3.47;;;;;;;;;;4981038;28;20191;-80
2021/11/18 13:57:05;;;;;;;7.10;2.78;;;;;;;;;;4980505;28;20310;-80
2021/11/18 13:59:40;;;;;;;6.90;3.08;;;;;;;;;;4995324;28;20187;-79
2021/11/18 14:02:14;;;;;;;8.07;3.47;;;;;;;;;;4995841;28;20317;-80
2021/11/18 14:04:45;;;;;;;14.13;3.78;;;;;;;;;;4995792;28;20183;-80
2021/11/18 14:07:12;;;;;;;7.15;3.28;;;;;;;;;;4990736;28;20176;-80
2021/11/18 14:09:40;;;;;;;7.53;3.40;;;;;;;;;;4985177;28;20247;-81
2021/11/18 14:12:15;;;;;;;4.50;2.92;;;;;;;;;;4980752;28;20254;-79
2021/11/18 14:14:44;;;;;;;7.38;3.00;;;;;;;;;;4980187;28;20274;-79
2021/11/18 14:17:19;;;;;;;15.65;3.65;;;;;;;;;;4980264;28;20181;-80
2021/11/18 14:20:05;;;;;;;8.32;3.13;;;;;;;;;;4980791;28;20175;-79
2021/11/18 14:22:33;;;;;;;7.93;2.60;;;;;;;;;;4981646;28;20204;-79
2021/11/18 14:24:59;;;;;;;11.57;3.40;;;;;;;;;;5001270;28;20271;-80
2021/11/18 14:27:28;;;;;;;11.88;3.60;;;;;;;;;;5002002;28;20183;-80
2021/11/18 14:29:57;;;;;;;9.07;2.88;;;;;;;;;;4983020;28;20191;-80
2021/11/18 14:32:26;;;;;;;7.22;3.35;;;;;;;;;;4983977;28;20327;-80
2021/11/18 14:34:58;;;;;;;7.50;2.60;;;;;;;;;;4984542;28;20311;-80
2021/11/18 14:37:33;;;;;;;10.10;2.90;;;;;;;;;;4986614;28;20203;-80
2021/11/18 14:40:01;;;;;;;13.15;3.03;;;;;;;;;;5000850;28;20645;-80
2021/11/18 14:42:39;;;;;;;6.38;2.80;;;;;;;;;;4986500;28;20583;-80
2021/11/18 14:45:20;;;;;;;10.60;3.03;;;;;;;;;;4998659;28;20228;-80
2021/11/18 14:47:48;;;;;;;8.80;2.55;;;;;;;;;;4982879;28;20187;-80
2021/11/18 14:50:17;;;;;;;10.18;3.80;;;;;;;;;;4999189;28;20185;-80